Home   Weather   USA   Fort Worth   Past weeks
Flag for USA

Past Weather in Fort Worth, Texas, USA — February 2021

Currently: 72 °F. Passing clouds. (Weather station: Meacham International Airport, USA). See more current weather

February 2021 Weather in Fort Worth — Graph

°F

High & Low Weather Summary for February 2021

 TemperatureHumidityPressure
High81 °F (Feb 23, 2:53 pm)100% (Feb 8, 7:53 am)30.56 "Hg (Feb 8, 7:53 am)
Low-1 °F (Feb 16, 4:53 am)17% (Feb 22, 5:53 pm)29.63 "Hg (Feb 4, 5:53 am)
Average39 °F73%30.11 "Hg
* Reported Feb 1 12:53 am — Feb 28 11:53 pm, Fort Worth. Weather by CustomWeather, © 2021

Note: Actual official high and low records may vary slightly from our data, if they occured in-between our weather recording intervals... More about our weather records

Fort Worth Weather History for February 1, 2021

Scroll right to see more
 ConditionsComfort  
Time TempWeatherWind HumidityBarometerVisibility
12:53 am
Mon, Feb 1
39 °FClear.6 mph76%30.39 "Hg10 mi
1:53 am36 °FClear.5 mph82%30.40 "Hg10 mi
2:53 am37 °FClear.7 mph79%30.40 "Hg10 mi
3:53 am37 °FClear.8 mph79%30.42 "Hg10 mi
4:53 am35 °FClear.8 mph85%30.43 "Hg10 mi
5:53 am34 °FClear.7 mph85%30.44 "Hg10 mi
6:53 am33 °FClear.5 mph88%30.46 "Hg10 mi
7:53 am34 °FSunny.6 mph85%30.46 "Hg10 mi
8:53 am38 °FSunny.7 mph79%30.47 "Hg10 mi
9:53 am42 °FSunny.13 mph62%30.47 "Hg10 mi
10:53 am46 °FSunny.8 mph54%30.47 "Hg10 mi
11:53 am50 °FSunny.9 mph41%30.46 "Hg10 mi
12:53 pm52 °FSunny.10 mph37%30.41 "Hg10 mi
1:53 pm55 °FSunny.10 mph33%30.37 "Hg10 mi
2:53 pm58 °FSunny.9 mph28%30.35 "Hg10 mi
3:53 pm58 °FSunny.6 mph26%30.33 "Hg10 mi
4:53 pm58 °FSunny.6 mph26%30.33 "Hg10 mi
5:53 pm55 °FSunny.3 mph28%30.32 "Hg10 mi
6:53 pm52 °FClear.3 mph31%30.33 "Hg10 mi
7:53 pm49 °FClear.3 mph38%30.33 "Hg10 mi
8:53 pm47 °FClear.No wind41%30.34 "Hg10 mi
9:53 pm44 °FClear.No wind53%30.33 "Hg10 mi
10:53 pm43 °FClear.No wind56%30.32 "Hg10 mi
11:53 pm43 °FClear.No wind56%30.31 "Hg10 mi
Weather by CustomWeather, © 2021

See weather overview